Mariner A — 9HVA7 — position and weather

sailwx.info

Track history (hours):
 
Tides and Currents Weather Stations Pressure Air Temp Water Temp Dewpoint Dewpoint Depression Visibility Wind Speed Wind Dir Waves Ship Positions

Mariner A

Last reported at 2015-Feb-27 16:24 UTC. Time now 2015-Feb-28 20:55 UTC.
Position N 43°50' E 038°26'.

Length 176 m; draft 10.1 m.

Type: Tanker. MMSI: 215817000.

Date/timePositionNaut miles runAvg speedWind from/ knotsBaromVisibWave heightAir tempDewpointWater temp
2015-Feb-27 16:24N 43°50' E 038°26'1112.8
2015-Feb-27 15:31N 43°54' E 038°40'1213.0
2015-Feb-27 14:33N 43°59' E 038°56'8 8.5
2015-Feb-27 13:33N 44°05' E 039°04'0 0.2
2015-Feb-27 12:31N 44°05' E 039°05'0 0.0
2015-Feb-27 11:31N 44°05' E 039°05'0 0.0
2015-Feb-27 10:31N 44°05' E 039°05'0 0.0
2015-Feb-27 09:31N 44°05' E 039°05'0 0.0
2015-Feb-27 08:31N 44°05' E 039°05'0 0.0
2015-Feb-27 07:31N 44°05' E 039°05'0 0.0
2015-Feb-27 06:31N 44°05' E 039°05'0 0.0
2015-Feb-27 05:31N 44°05' E 039°05'0 0.0
2015-Feb-27 04:31N 44°05' E 039°05'0 0.0
2015-Feb-27 03:31N 44°05' E 039°05'0 0.0
2015-Feb-27 02:31N 44°05' E 039°05'0 0.0
2015-Feb-27 01:31N 44°05' E 039°05'0 0.0
2015-Feb-27 00:31N 44°05' E 039°05'0 0.0
2015-Feb-26 23:31N 44°05' E 039°05'0 0.0
2015-Feb-26 22:31N 44°05' E 039°05'0 0.0
2015-Feb-26 21:31N 44°05' E 039°05'0 0.0
2015-Feb-26 20:31N 44°05' E 039°05'0 0.0
2015-Feb-26 19:31N 44°05' E 039°05'0 0.0
2015-Feb-26 18:31N 44°05' E 039°05'0 0.0
2015-Feb-26 17:31N 44°05' E 039°05'0 0.0
2015-Feb-26 16:31N 44°05' E 039°05'0 0.0
2015-Feb-26 15:30N 44°05' E 039°05'0 0.0
2015-Feb-26 14:30N 44°05' E 039°05'0 0.0
2015-Feb-26 13:30N 44°05' E 039°05'0 0.0
2015-Feb-26 12:30N 44°05' E 039°05'0 0.0
2015-Feb-26 11:30N 44°05' E 039°05'0 0.0
2015-Feb-26 10:30N 44°05' E 039°05'0 0.0
2015-Feb-26 09:30N 44°05' E 039°05'0 0.0
2015-Feb-26 08:30N 44°05' E 039°05'0 0.0
2015-Feb-26 07:30N 44°05' E 039°05'0 0.0
2015-Feb-26 06:30N 44°05' E 039°05'0 0.0
2015-Feb-26 05:30N 44°05' E 039°05'0 0.0
2015-Feb-26 04:30N 44°05' E 039°05'0 0.0
2015-Feb-26 03:30N 44°05' E 039°05'0 0.0
2015-Feb-26 02:30N 44°05' E 039°05'0 0.0
2015-Feb-26 01:30N 44°05' E 039°05'0 0.0
2015-Feb-26 00:24N 44°05' E 039°05'0 0.0
2015-Feb-25 23:30N 44°05' E 039°05'0 0.0
2015-Feb-25 22:30N 44°05' E 039°05'0 0.0
2015-Feb-25 20:30N 44°05' E 039°05'0 0.0
2015-Feb-25 19:30N 44°05' E 039°05'1 1.5
2015-Feb-25 18:33N 44°04' E 039°04'2 1.7
2015-Feb-25 17:29N 44°03' E 039°06'0 0.0
2015-Feb-25 16:29N 44°03' E 039°06'0 0.0
2015-Feb-25 15:29N 44°03' E 039°06'1 1.3
2015-Feb-25 14:33N 44°02' E 039°05'1312.9
2015-Feb-25 13:33N 43°57' E 038°48'1313.2
2015-Feb-25 12:33N 43°52' E 038°31'1313.3
2015-Feb-25 11:33N 43°47' E 038°14'1413.6
2015-Feb-25 10:33N 43°42' E 037°56'4313.5
2015-Feb-25 07:23N 43°27' E 037°01'347 9.7
2015-Feb-23 19:33N 41°27' E 029°40'1413.5
2015-Feb-23 18:31N 41°22' E 029°23'1212.8
2015-Feb-23 17:33N 41°15' E 029°09'2110.4
2015-Feb-23 15:32N 40°56' E 028°58'1010.5
2015-Feb-23 14:33N 40°47' E 028°51'2 1.7
2015-Feb-23 13:33N 40°45' E 028°50'0 0.5
2015-Feb-23 12:31N 40°46' E 028°50'1 0.9
2015-Feb-23 11:28N 40°45' E 028°50'9 8.2
2015-Feb-23 10:23N 40°37' E 028°45'0 0.6
2015-Feb-23 09:31N 40°37' E 028°45'1 0.5
2015-Feb-23 08:32N 40°38' E 028°45'0 0.5
2015-Feb-23 07:28N 40°38' E 028°45'  
2015-Feb-20 12:24N 40°51' E 029°16'0 0.0
2015-Feb-20 11:24N 40°51' E 029°16'0 0.0
2015-Feb-20 10:30N 40°51' E 029°16'0 0.0
2015-Feb-20 09:24N 40°51' E 029°16'0 0.0
2015-Feb-20 08:18N 40°51' E 029°16'0 0.0
2015-Feb-20 07:30N 40°51' E 029°16'0 0.0
2015-Feb-20 06:30N 40°51' E 029°16'0 0.0
2015-Feb-20 05:30N 40°51' E 029°16'0 0.0
2015-Feb-20 04:30N 40°51' E 029°16'0 0.0
2015-Feb-20 03:29N 40°51' E 029°16'0 0.0
2015-Feb-20 02:23N 40°51' E 029°16'0 0.0
2015-Feb-20 01:29N 40°51' E 029°16'0 0.0
2015-Feb-20 00:23N 40°51' E 029°16'0 0.0
2015-Feb-19 23:29N 40°51' E 029°16'0 0.0
2015-Feb-19 22:29N 40°51' E 029°16'0 0.0
2015-Feb-19 21:29N 40°51' E 029°16'0 0.0
2015-Feb-19 20:17N 40°51' E 029°16'0 0.0
2015-Feb-19 19:29N 40°51' E 029°16'0 0.0
2015-Feb-19 18:11N 40°51' E 029°16'0 0.0
2015-Feb-19 17:29N 40°51' E 029°16'0 0.0
2015-Feb-19 16:29N 40°51' E 029°16'  
Track history (hours):
 
Tides and Currents Weather Stations Pressure Air Temp Water Temp Dewpoint Dewpoint Depression Visibility Wind Speed Wind Dir Waves Ship Positions

Mariner A

Last reported at 2015-Feb-27 16:24 UTC. Time now 2015-Feb-28 20:55 UTC.
Position N 43°50' E 038°26'.

Length 176 m; draft 10.1 m.

Type: Tanker. MMSI: 215817000.

Date/timePositionNaut miles runAvg speedWind from/ knotsBaromVisibWave heightAir tempDewpointWater temp
2015-Feb-27 16:24N 43°50' E 038°26'1112.8
2015-Feb-27 15:31N 43°54' E 038°40'1213.0
2015-Feb-27 14:33N 43°59' E 038°56'8 8.5
2015-Feb-27 13:33N 44°05' E 039°04'0 0.2
2015-Feb-27 12:31N 44°05' E 039°05'0 0.0
2015-Feb-27 11:31N 44°05' E 039°05'0 0.0
2015-Feb-27 10:31N 44°05' E 039°05'0 0.0
2015-Feb-27 09:31N 44°05' E 039°05'0 0.0
2015-Feb-27 08:31N 44°05' E 039°05'0 0.0
2015-Feb-27 07:31N 44°05' E 039°05'0 0.0
2015-Feb-27 06:31N 44°05' E 039°05'0 0.0
2015-Feb-27 05:31N 44°05' E 039°05'0 0.0
2015-Feb-27 04:31N 44°05' E 039°05'0 0.0
2015-Feb-27 03:31N 44°05' E 039°05'0 0.0
2015-Feb-27 02:31N 44°05' E 039°05'0 0.0
2015-Feb-27 01:31N 44°05' E 039°05'0 0.0
2015-Feb-27 00:31N 44°05' E 039°05'0 0.0
2015-Feb-26 23:31N 44°05' E 039°05'0 0.0
2015-Feb-26 22:31N 44°05' E 039°05'0 0.0
2015-Feb-26 21:31N 44°05' E 039°05'0 0.0
2015-Feb-26 20:31N 44°05' E 039°05'0 0.0
2015-Feb-26 19:31N 44°05' E 039°05'0 0.0
2015-Feb-26 18:31N 44°05' E 039°05'0 0.0
2015-Feb-26 17:31N 44°05' E 039°05'0 0.0
2015-Feb-26 16:31N 44°05' E 039°05'0 0.0
2015-Feb-26 15:30N 44°05' E 039°05'0 0.0
2015-Feb-26 14:30N 44°05' E 039°05'0 0.0
2015-Feb-26 13:30N 44°05' E 039°05'0 0.0
2015-Feb-26 12:30N 44°05' E 039°05'0 0.0
2015-Feb-26 11:30N 44°05' E 039°05'0 0.0
2015-Feb-26 10:30N 44°05' E 039°05'0 0.0
2015-Feb-26 09:30N 44°05' E 039°05'0 0.0
2015-Feb-26 08:30N 44°05' E 039°05'0 0.0
2015-Feb-26 07:30N 44°05' E 039°05'0 0.0
2015-Feb-26 06:30N 44°05' E 039°05'0 0.0
2015-Feb-26 05:30N 44°05' E 039°05'0 0.0
2015-Feb-26 04:30N 44°05' E 039°05'0 0.0
2015-Feb-26 03:30N 44°05' E 039°05'0 0.0
2015-Feb-26 02:30N 44°05' E 039°05'0 0.0
2015-Feb-26 01:30N 44°05' E 039°05'0 0.0
2015-Feb-26 00:24N 44°05' E 039°05'0 0.0
2015-Feb-25 23:30N 44°05' E 039°05'0 0.0
2015-Feb-25 22:30N 44°05' E 039°05'0 0.0
2015-Feb-25 20:30N 44°05' E 039°05'0 0.0
2015-Feb-25 19:30N 44°05' E 039°05'1 1.5
2015-Feb-25 18:33N 44°04' E 039°04'2 1.7
2015-Feb-25 17:29N 44°03' E 039°06'0 0.0
2015-Feb-25 16:29N 44°03' E 039°06'0 0.0
2015-Feb-25 15:29N 44°03' E 039°06'1 1.3
2015-Feb-25 14:33N 44°02' E 039°05'1312.9
2015-Feb-25 13:33N 43°57' E 038°48'1313.2
2015-Feb-25 12:33N 43°52' E 038°31'1313.3
2015-Feb-25 11:33N 43°47' E 038°14'1413.6
2015-Feb-25 10:33N 43°42' E 037°56'4313.5
2015-Feb-25 07:23N 43°27' E 037°01'347 9.7
2015-Feb-23 19:33N 41°27' E 029°40'1413.5
2015-Feb-23 18:31N 41°22' E 029°23'1212.8
2015-Feb-23 17:33N 41°15' E 029°09'2110.4
2015-Feb-23 15:32N 40°56' E 028°58'1010.5
2015-Feb-23 14:33N 40°47' E 028°51'2 1.7
2015-Feb-23 13:33N 40°45' E 028°50'0 0.5
2015-Feb-23 12:31N 40°46' E 028°50'1 0.9
2015-Feb-23 11:28N 40°45' E 028°50'9 8.2
2015-Feb-23 10:23N 40°37' E 028°45'0 0.6
2015-Feb-23 09:31N 40°37' E 028°45'1 0.5
2015-Feb-23 08:32N 40°38' E 028°45'0 0.5
2015-Feb-23 07:28N 40°38' E 028°45'  
2015-Feb-20 12:24N 40°51' E 029°16'0 0.0
2015-Feb-20 11:24N 40°51' E 029°16'0 0.0
2015-Feb-20 10:30N 40°51' E 029°16'0 0.0
2015-Feb-20 09:24N 40°51' E 029°16'0 0.0
2015-Feb-20 08:18N 40°51' E 029°16'0 0.0
2015-Feb-20 07:30N 40°51' E 029°16'0 0.0
2015-Feb-20 06:30N 40°51' E 029°16'0 0.0
2015-Feb-20 05:30N 40°51' E 029°16'0 0.0
2015-Feb-20 04:30N 40°51' E 029°16'0 0.0
2015-Feb-20 03:29N 40°51' E 029°16'0 0.0
2015-Feb-20 02:23N 40°51' E 029°16'0 0.0
2015-Feb-20 01:29N 40°51' E 029°16'0 0.0
2015-Feb-20 00:23N 40°51' E 029°16'0 0.0
2015-Feb-19 23:29N 40°51' E 029°16'0 0.0
2015-Feb-19 22:29N 40°51' E 029°16'0 0.0
2015-Feb-19 21:29N 40°51' E 029°16'0 0.0
2015-Feb-19 20:17N 40°51' E 029°16'0 0.0
2015-Feb-19 19:29N 40°51' E 029°16'0 0.0
2015-Feb-19 18:11N 40°51' E 029°16'0 0.0
2015-Feb-19 17:29N 40°51' E 029°16'0 0.0
2015-Feb-19 16:29N 40°51' E 029°16'  

Dump ship's entire track history